sensor_id;sensor_type;location;lat;lon;timestamp;P1;durP1;ratioP1;P2;durP2;ratioP2
21601;SDS011;10963;50.934;4.668;2023-08-31T00:01:13;1.73;;;1.07;;
21601;SDS011;10963;50.934;4.668;2023-08-31T00:03:43;1.27;;;0.97;;
21601;SDS011;10963;50.934;4.668;2023-08-31T00:06:09;1.43;;;1.10;;
21601;SDS011;10963;50.934;4.668;2023-08-31T00:08:37;3.17;;;1.30;;
21601;SDS011;10963;50.934;4.668;2023-08-31T00:11:05;2.07;;;1.13;;
21601;SDS011;10963;50.934;4.668;2023-08-31T00:13:33;1.23;;;1.13;;
21601;SDS011;10963;50.934;4.668;2023-08-31T00:15:59;1.30;;;0.97;;
21601;SDS011;10963;50.934;4.668;2023-08-31T00:18:27;1.43;;;1.07;;
21601;SDS011;10963;50.934;4.668;2023-08-31T00:20:55;3.50;;;1.13;;
21601;SDS011;10963;50.934;4.668;2023-08-31T00:23:21;2.03;;;1.10;;
21601;SDS011;10963;50.934;4.668;2023-08-31T00:25:47;1.53;;;1.23;;
21601;SDS011;10963;50.934;4.668;2023-08-31T00:28:13;2.23;;;1.43;;
21601;SDS011;10963;50.934;4.668;2023-08-31T00:30:40;5.83;;;1.80;;
21601;SDS011;10963;50.934;4.668;2023-08-31T00:33:09;3.37;;;1.60;;
21601;SDS011;10963;50.934;4.668;2023-08-31T00:35:37;6.67;;;1.97;;
21601;SDS011;10963;50.934;4.668;2023-08-31T00:38:06;5.47;;;1.83;;
21601;SDS011;10963;50.934;4.668;2023-08-31T00:40:37;4.60;;;2.07;;
21601;SDS011;10963;50.934;4.668;2023-08-31T00:43:06;1.90;;;1.67;;
21601;SDS011;10963;50.934;4.668;2023-08-31T00:45:34;2.63;;;1.80;;
21601;SDS011;10963;50.934;4.668;2023-08-31T00:48:00;5.90;;;2.13;;
21601;SDS011;10963;50.934;4.668;2023-08-31T00:50:26;3.67;;;1.60;;
21601;SDS011;10963;50.934;4.668;2023-08-31T00:52:54;3.03;;;2.13;;
21601;SDS011;10963;50.934;4.668;2023-08-31T00:55:20;3.77;;;2.33;;
21601;SDS011;10963;50.934;4.668;2023-08-31T00:57:46;3.07;;;2.50;;
21601;SDS011;10963;50.934;4.668;2023-08-31T01:00:12;6.17;;;2.23;;
21601;SDS011;10963;50.934;4.668;2023-08-31T01:05:50;4.30;;;2.00;;
21601;SDS011;10963;50.934;4.668;2023-08-31T01:11:08;1.90;;;1.80;;
21601;SDS011;10963;50.934;4.668;2023-08-31T01:13:44;4.10;;;2.37;;
21601;SDS011;10963;50.934;4.668;2023-08-31T01:16:16;3.73;;;2.50;;
21601;SDS011;10963;50.934;4.668;2023-08-31T01:18:46;3.13;;;2.37;;
21601;SDS011;10963;50.934;4.668;2023-08-31T01:21:24;5.30;;;2.27;;
21601;SDS011;10963;50.934;4.668;2023-08-31T01:23:54;3.73;;;2.20;;
21601;SDS011;10963;50.934;4.668;2023-08-31T01:26:26;6.90;;;2.67;;
21601;SDS011;10963;50.934;4.668;2023-08-31T01:28:54;3.60;;;2.57;;
21601;SDS011;10963;50.934;4.668;2023-08-31T01:31:21;3.47;;;2.60;;
21601;SDS011;10963;50.934;4.668;2023-08-31T01:33:46;3.03;;;2.60;;
21601;SDS011;10963;50.934;4.668;2023-08-31T01:39:18;7.57;;;2.70;;
21601;SDS011;10963;50.934;4.668;2023-08-31T01:42:09;3.13;;;2.87;;
21601;SDS011;10963;50.934;4.668;2023-08-31T01:44:40;4.17;;;2.53;;
21601;SDS011;10963;50.934;4.668;2023-08-31T01:47:10;3.90;;;2.70;;
21601;SDS011;10963;50.934;4.668;2023-08-31T01:49:41;4.33;;;2.70;;
21601;SDS011;10963;50.934;4.668;2023-08-31T01:52:08;4.40;;;3.13;;
21601;SDS011;10963;50.934;4.668;2023-08-31T01:54:36;7.30;;;3.17;;
21601;SDS011;10963;50.934;4.668;2023-08-31T01:57:05;5.77;;;2.77;;
21601;SDS011;10963;50.934;4.668;2023-08-31T01:59:33;4.43;;;2.50;;
21601;SDS011;10963;50.934;4.668;2023-08-31T02:02:00;5.67;;;3.10;;
21601;SDS011;10963;50.934;4.668;2023-08-31T02:04:26;10.13;;;3.13;;
21601;SDS011;10963;50.934;4.668;2023-08-31T02:06:51;8.00;;;2.80;;
21601;SDS011;10963;50.934;4.668;2023-08-31T02:09:21;4.50;;;2.90;;
21601;SDS011;10963;50.934;4.668;2023-08-31T02:11:52;5.53;;;2.87;;
21601;SDS011;10963;50.934;4.668;2023-08-31T02:14:17;4.73;;;2.67;;
21601;SDS011;10963;50.934;4.668;2023-08-31T02:16:45;4.53;;;3.10;;
21601;SDS011;10963;50.934;4.668;2023-08-31T02:19:11;6.40;;;2.77;;
21601;SDS011;10963;50.934;4.668;2023-08-31T02:21:39;5.50;;;2.70;;
21601;SDS011;10963;50.934;4.668;2023-08-31T02:24:05;5.77;;;3.07;;
21601;SDS011;10963;50.934;4.668;2023-08-31T02:26:31;5.17;;;2.80;;
21601;SDS011;10963;50.934;4.668;2023-08-31T02:28:59;4.97;;;2.60;;
21601;SDS011;10963;50.934;4.668;2023-08-31T02:31:27;4.57;;;2.80;;
21601;SDS011;10963;50.934;4.668;2023-08-31T02:33:52;6.40;;;3.07;;
21601;SDS011;10963;50.934;4.668;2023-08-31T02:36:21;7.87;;;3.83;;
21601;SDS011;10963;50.934;4.668;2023-08-31T02:38:46;6.37;;;3.83;;
21601;SDS011;10963;50.934;4.668;2023-08-31T02:41:14;6.93;;;3.40;;
21601;SDS011;10963;50.934;4.668;2023-08-31T02:43:40;6.63;;;3.50;;
21601;SDS011;10963;50.934;4.668;2023-08-31T02:46:10;6.97;;;3.70;;
21601;SDS011;10963;50.934;4.668;2023-08-31T02:48:38;7.13;;;3.30;;
21601;SDS011;10963;50.934;4.668;2023-08-31T02:51:06;3.87;;;3.13;;
21601;SDS011;10963;50.934;4.668;2023-08-31T02:53:32;6.37;;;3.23;;
21601;SDS011;10963;50.934;4.668;2023-08-31T02:56:00;5.23;;;3.37;;
21601;SDS011;10963;50.934;4.668;2023-08-31T02:58:29;5.23;;;3.50;;
21601;SDS011;10963;50.934;4.668;2023-08-31T03:00:55;4.93;;;3.33;;
21601;SDS011;10963;50.934;4.668;2023-08-31T03:03:30;5.90;;;3.37;;
21601;SDS011;10963;50.934;4.668;2023-08-31T03:06:00;5.57;;;3.23;;
21601;SDS011;10963;50.934;4.668;2023-08-31T03:08:25;4.17;;;2.80;;
21601;SDS011;10963;50.934;4.668;2023-08-31T03:10:51;3.87;;;2.93;;
21601;SDS011;10963;50.934;4.668;2023-08-31T03:13:18;5.90;;;3.10;;
21601;SDS011;10963;50.934;4.668;2023-08-31T03:15:46;5.37;;;3.20;;
21601;SDS011;10963;50.934;4.668;2023-08-31T03:18:14;6.37;;;3.10;;
21601;SDS011;10963;50.934;4.668;2023-08-31T03:20:39;6.40;;;3.40;;
21601;SDS011;10963;50.934;4.668;2023-08-31T03:23:05;4.27;;;3.10;;
21601;SDS011;10963;50.934;4.668;2023-08-31T03:25:31;5.47;;;2.93;;
21601;SDS011;10963;50.934;4.668;2023-08-31T03:27:56;6.70;;;3.40;;
21601;SDS011;10963;50.934;4.668;2023-08-31T03:30:22;6.43;;;3.67;;
21601;SDS011;10963;50.934;4.668;2023-08-31T03:32:50;7.73;;;3.57;;
21601;SDS011;10963;50.934;4.668;2023-08-31T03:35:20;3.23;;;2.47;;
21601;SDS011;10963;50.934;4.668;2023-08-31T03:37:51;6.40;;;2.87;;
21601;SDS011;10963;50.934;4.668;2023-08-31T03:40:17;4.70;;;3.23;;
21601;SDS011;10963;50.934;4.668;2023-08-31T03:42:48;5.80;;;2.83;;
21601;SDS011;10963;50.934;4.668;2023-08-31T03:45:17;6.73;;;3.27;;
21601;SDS011;10963;50.934;4.668;2023-08-31T03:47:43;4.40;;;2.90;;
21601;SDS011;10963;50.934;4.668;2023-08-31T03:50:09;7.63;;;3.30;;
21601;SDS011;10963;50.934;4.668;2023-08-31T03:52:37;12.03;;;3.07;;
21601;SDS011;10963;50.934;4.668;2023-08-31T03:55:03;6.73;;;2.67;;
21601;SDS011;10963;50.934;4.668;2023-08-31T03:57:32;5.17;;;2.83;;
21601;SDS011;10963;50.934;4.668;2023-08-31T04:00:00;5.53;;;2.90;;
21601;SDS011;10963;50.934;4.668;2023-08-31T04:02:25;7.77;;;3.40;;
21601;SDS011;10963;50.934;4.668;2023-08-31T04:04:52;5.77;;;2.67;;
21601;SDS011;10963;50.934;4.668;2023-08-31T04:07:20;6.23;;;3.13;;
21601;SDS011;10963;50.934;4.668;2023-08-31T04:09:45;7.60;;;2.63;;
21601;SDS011;10963;50.934;4.668;2023-08-31T04:12:11;6.30;;;3.00;;
21601;SDS011;10963;50.934;4.668;2023-08-31T04:14:37;5.63;;;2.70;;
21601;SDS011;10963;50.934;4.668;2023-08-31T04:17:04;5.03;;;2.93;;
21601;SDS011;10963;50.934;4.668;2023-08-31T04:19:35;5.17;;;3.00;;
21601;SDS011;10963;50.934;4.668;2023-08-31T04:22:05;7.30;;;2.77;;
21601;SDS011;10963;50.934;4.668;2023-08-31T04:24:33;3.23;;;2.40;;
21601;SDS011;10963;50.934;4.668;2023-08-31T04:27:04;10.33;;;3.00;;
21601;SDS011;10963;50.934;4.668;2023-08-31T04:29:29;6.40;;;2.63;;
21601;SDS011;10963;50.934;4.668;2023-08-31T04:31:55;6.77;;;3.30;;
21601;SDS011;10963;50.934;4.668;2023-08-31T04:34:21;5.20;;;3.23;;
21601;SDS011;10963;50.934;4.668;2023-08-31T04:36:49;7.07;;;3.00;;
21601;SDS011;10963;50.934;4.668;2023-08-31T04:39:15;4.40;;;3.10;;
21601;SDS011;10963;50.934;4.668;2023-08-31T04:41:43;5.23;;;2.60;;
21601;SDS011;10963;50.934;4.668;2023-08-31T04:44:09;4.87;;;2.70;;
21601;SDS011;10963;50.934;4.668;2023-08-31T04:46:35;5.20;;;2.97;;
21601;SDS011;10963;50.934;4.668;2023-08-31T04:49:05;5.90;;;3.33;;
21601;SDS011;10963;50.934;4.668;2023-08-31T04:51:34;3.70;;;3.13;;
21601;SDS011;10963;50.934;4.668;2023-08-31T04:54:02;8.13;;;3.10;;
21601;SDS011;10963;50.934;4.668;2023-08-31T04:56:29;6.50;;;3.40;;
21601;SDS011;10963;50.934;4.668;2023-08-31T04:58:57;5.30;;;3.00;;
21601;SDS011;10963;50.934;4.668;2023-08-31T05:01:25;3.80;;;3.20;;
21601;SDS011;10963;50.934;4.668;2023-08-31T05:03:50;5.87;;;3.23;;
21601;SDS011;10963;50.934;4.668;2023-08-31T05:06:21;6.10;;;2.97;;
21601;SDS011;10963;50.934;4.668;2023-08-31T05:08:49;5.13;;;3.20;;
21601;SDS011;10963;50.934;4.668;2023-08-31T05:11:15;5.40;;;2.70;;
21601;SDS011;10963;50.934;4.668;2023-08-31T05:13:41;4.90;;;3.00;;
21601;SDS011;10963;50.934;4.668;2023-08-31T05:16:11;5.30;;;3.03;;
21601;SDS011;10963;50.934;4.668;2023-08-31T05:18:43;3.93;;;2.90;;
21601;SDS011;10963;50.934;4.668;2023-08-31T05:21:09;6.73;;;2.57;;
21601;SDS011;10963;50.934;4.668;2023-08-31T05:23:37;5.00;;;3.47;;
21601;SDS011;10963;50.934;4.668;2023-08-31T05:26:05;7.27;;;3.40;;
21601;SDS011;10963;50.934;4.668;2023-08-31T05:28:30;5.63;;;3.10;;
21601;SDS011;10963;50.934;4.668;2023-08-31T05:30:56;6.20;;;3.60;;
21601;SDS011;10963;50.934;4.668;2023-08-31T05:33:23;7.60;;;3.07;;
21601;SDS011;10963;50.934;4.668;2023-08-31T05:35:50;5.70;;;3.30;;
21601;SDS011;10963;50.934;4.668;2023-08-31T05:38:21;2.90;;;2.50;;
21601;SDS011;10963;50.934;4.668;2023-08-31T05:40:47;7.67;;;3.47;;
21601;SDS011;10963;50.934;4.668;2023-08-31T05:43:15;6.33;;;2.90;;
21601;SDS011;10963;50.934;4.668;2023-08-31T05:45:41;7.23;;;3.27;;
21601;SDS011;10963;50.934;4.668;2023-08-31T05:48:07;3.43;;;2.80;;
21601;SDS011;10963;50.934;4.668;2023-08-31T05:50:34;5.57;;;3.50;;
21601;SDS011;10963;50.934;4.668;2023-08-31T05:53:02;3.23;;;2.53;;
21601;SDS011;10963;50.934;4.668;2023-08-31T05:55:32;6.40;;;3.07;;
21601;SDS011;10963;50.934;4.668;2023-08-31T05:58:00;7.70;;;3.87;;
21601;SDS011;10963;50.934;4.668;2023-08-31T06:00:27;8.03;;;3.20;;
21601;SDS011;10963;50.934;4.668;2023-08-31T06:02:55;3.90;;;2.83;;
21601;SDS011;10963;50.934;4.668;2023-08-31T06:05:23;7.73;;;3.30;;
21601;SDS011;10963;50.934;4.668;2023-08-31T06:07:56;7.23;;;3.37;;
21601;SDS011;10963;50.934;4.668;2023-08-31T06:10:22;5.10;;;3.13;;
21601;SDS011;10963;50.934;4.668;2023-08-31T06:12:50;5.63;;;3.47;;
21601;SDS011;10963;50.934;4.668;2023-08-31T06:15:18;7.00;;;3.07;;
21601;SDS011;10963;50.934;4.668;2023-08-31T06:17:44;6.57;;;3.10;;
21601;SDS011;10963;50.934;4.668;2023-08-31T06:20:12;5.20;;;3.23;;
21601;SDS011;10963;50.934;4.668;2023-08-31T06:22:38;4.80;;;2.57;;
21601;SDS011;10963;50.934;4.668;2023-08-31T06:25:04;7.10;;;3.00;;
21601;SDS011;10963;50.934;4.668;2023-08-31T06:27:36;7.10;;;2.93;;
21601;SDS011;10963;50.934;4.668;2023-08-31T06:30:07;7.60;;;2.37;;
21601;SDS011;10963;50.934;4.668;2023-08-31T06:32:33;6.27;;;2.97;;
21601;SDS011;10963;50.934;4.668;2023-08-31T06:34:59;10.27;;;2.73;;
21601;SDS011;10963;50.934;4.668;2023-08-31T06:37:27;4.80;;;2.60;;
21601;SDS011;10963;50.934;4.668;2023-08-31T06:39:55;5.73;;;2.33;;
21601;SDS011;10963;50.934;4.668;2023-08-31T06:42:21;5.77;;;2.37;;
21601;SDS011;10963;50.934;4.668;2023-08-31T06:44:48;5.90;;;2.40;;
21601;SDS011;10963;50.934;4.668;2023-08-31T06:47:14;10.23;;;3.20;;
21601;SDS011;10963;50.934;4.668;2023-08-31T06:49:45;4.70;;;2.40;;
21601;SDS011;10963;50.934;4.668;2023-08-31T06:52:11;6.23;;;2.33;;
21601;SDS011;10963;50.934;4.668;2023-08-31T06:54:39;4.13;;;2.37;;
21601;SDS011;10963;50.934;4.668;2023-08-31T06:57:07;5.07;;;2.20;;
21601;SDS011;10963;50.934;4.668;2023-08-31T06:59:35;5.90;;;2.57;;
21601;SDS011;10963;50.934;4.668;2023-08-31T07:02:00;6.40;;;2.60;;
21601;SDS011;10963;50.934;4.668;2023-08-31T07:04:28;9.23;;;3.57;;
21601;SDS011;10963;50.934;4.668;2023-08-31T07:06:57;6.70;;;2.80;;
21601;SDS011;10963;50.934;4.668;2023-08-31T07:09:22;9.93;;;2.60;;
21601;SDS011;10963;50.934;4.668;2023-08-31T07:11:48;7.30;;;2.77;;
21601;SDS011;10963;50.934;4.668;2023-08-31T07:14:14;6.57;;;2.87;;
21601;SDS011;10963;50.934;4.668;2023-08-31T07:16:40;10.90;;;3.00;;
21601;SDS011;10963;50.934;4.668;2023-08-31T07:19:05;6.43;;;2.70;;
21601;SDS011;10963;50.934;4.668;2023-08-31T07:21:31;6.70;;;2.80;;
21601;SDS011;10963;50.934;4.668;2023-08-31T07:23:57;7.53;;;2.83;;
21601;SDS011;10963;50.934;4.668;2023-08-31T07:26:22;5.40;;;2.83;;
21601;SDS011;10963;50.934;4.668;2023-08-31T07:28:50;10.13;;;3.23;;
21601;SDS011;10963;50.934;4.668;2023-08-31T07:31:16;6.30;;;2.90;;
21601;SDS011;10963;50.934;4.668;2023-08-31T07:33:42;6.30;;;2.83;;
21601;SDS011;10963;50.934;4.668;2023-08-31T07:36:12;6.10;;;3.10;;
21601;SDS011;10963;50.934;4.668;2023-08-31T07:38:40;8.03;;;2.63;;
21601;SDS011;10963;50.934;4.668;2023-08-31T07:41:06;13.87;;;2.73;;
21601;SDS011;10963;50.934;4.668;2023-08-31T07:43:37;8.63;;;3.37;;
21601;SDS011;10963;50.934;4.668;2023-08-31T07:46:02;9.97;;;2.87;;
21601;SDS011;10963;50.934;4.668;2023-08-31T07:48:28;8.73;;;2.73;;
21601;SDS011;10963;50.934;4.668;2023-08-31T07:50:54;8.87;;;2.77;;
21601;SDS011;10963;50.934;4.668;2023-08-31T07:53:20;5.67;;;2.80;;
21601;SDS011;10963;50.934;4.668;2023-08-31T07:55:52;9.57;;;3.00;;
21601;SDS011;10963;50.934;4.668;2023-08-31T07:58:22;5.70;;;3.20;;
21601;SDS011;10963;50.934;4.668;2023-08-31T08:00:48;7.37;;;3.17;;
21601;SDS011;10963;50.934;4.668;2023-08-31T08:03:17;10.40;;;2.93;;
21601;SDS011;10963;50.934;4.668;2023-08-31T08:05:48;6.80;;;2.90;;
21601;SDS011;10963;50.934;4.668;2023-08-31T08:08:17;7.80;;;3.70;;
21601;SDS011;10963;50.934;4.668;2023-08-31T08:10:42;8.17;;;3.00;;
21601;SDS011;10963;50.934;4.668;2023-08-31T08:13:11;10.73;;;3.30;;
21601;SDS011;10963;50.934;4.668;2023-08-31T08:15:37;12.43;;;3.40;;
21601;SDS011;10963;50.934;4.668;2023-08-31T08:18:04;9.03;;;3.93;;
21601;SDS011;10963;50.934;4.668;2023-08-31T08:20:29;8.33;;;3.47;;
21601;SDS011;10963;50.934;4.668;2023-08-31T08:22:58;6.97;;;3.00;;
21601;SDS011;10963;50.934;4.668;2023-08-31T08:25:29;7.00;;;3.20;;
21601;SDS011;10963;50.934;4.668;2023-08-31T08:27:54;8.27;;;3.53;;
21601;SDS011;10963;50.934;4.668;2023-08-31T08:30:20;8.70;;;3.10;;
21601;SDS011;10963;50.934;4.668;2023-08-31T08:32:48;7.67;;;2.97;;
21601;SDS011;10963;50.934;4.668;2023-08-31T08:35:14;8.10;;;3.10;;
21601;SDS011;10963;50.934;4.668;2023-08-31T08:37:43;10.83;;;3.10;;
21601;SDS011;10963;50.934;4.668;2023-08-31T08:40:11;6.27;;;3.00;;
21601;SDS011;10963;50.934;4.668;2023-08-31T08:42:38;10.97;;;3.57;;
21601;SDS011;10963;50.934;4.668;2023-08-31T08:45:07;8.17;;;3.93;;
21601;SDS011;10963;50.934;4.668;2023-08-31T08:47:40;8.23;;;3.60;;
21601;SDS011;10963;50.934;4.668;2023-08-31T08:50:08;7.70;;;3.27;;
21601;SDS011;10963;50.934;4.668;2023-08-31T08:52:38;6.60;;;3.10;;
21601;SDS011;10963;50.934;4.668;2023-08-31T08:55:05;9.00;;;3.40;;
21601;SDS011;10963;50.934;4.668;2023-08-31T08:57:31;7.40;;;3.30;;
21601;SDS011;10963;50.934;4.668;2023-08-31T08:59:57;7.43;;;3.20;;
21601;SDS011;10963;50.934;4.668;2023-08-31T09:02:23;7.67;;;2.73;;
21601;SDS011;10963;50.934;4.668;2023-08-31T09:04:52;8.23;;;3.60;;
21601;SDS011;10963;50.934;4.668;2023-08-31T09:07:20;7.20;;;3.20;;
21601;SDS011;10963;50.934;4.668;2023-08-31T09:09:50;6.53;;;3.10;;
21601;SDS011;10963;50.934;4.668;2023-08-31T09:12:23;6.10;;;3.20;;
21601;SDS011;10963;50.934;4.668;2023-08-31T09:15:02;9.77;;;3.07;;
21601;SDS011;10963;50.934;4.668;2023-08-31T09:17:37;5.37;;;3.30;;
21601;SDS011;10963;50.934;4.668;2023-08-31T09:20:12;7.87;;;3.13;;
21601;SDS011;10963;50.934;4.668;2023-08-31T09:22:41;5.90;;;3.23;;
21601;SDS011;10963;50.934;4.668;2023-08-31T09:25:10;8.83;;;3.80;;
21601;SDS011;10963;50.934;4.668;2023-08-31T09:27:38;11.97;;;3.33;;
21601;SDS011;10963;50.934;4.668;2023-08-31T09:30:08;8.13;;;3.33;;
21601;SDS011;10963;50.934;4.668;2023-08-31T09:32:36;8.53;;;3.27;;
21601;SDS011;10963;50.934;4.668;2023-08-31T09:35:10;9.77;;;3.17;;
21601;SDS011;10963;50.934;4.668;2023-08-31T09:37:38;6.73;;;3.60;;
21601;SDS011;10963;50.934;4.668;2023-08-31T09:40:04;7.30;;;3.47;;
21601;SDS011;10963;50.934;4.668;2023-08-31T09:42:36;8.50;;;3.63;;
21601;SDS011;10963;50.934;4.668;2023-08-31T09:45:05;5.47;;;3.27;;
21601;SDS011;10963;50.934;4.668;2023-08-31T09:47:31;8.23;;;3.47;;
21601;SDS011;10963;50.934;4.668;2023-08-31T09:49:57;8.17;;;3.60;;
21601;SDS011;10963;50.934;4.668;2023-08-31T09:52:27;5.73;;;3.00;;
21601;SDS011;10963;50.934;4.668;2023-08-31T09:54:53;7.80;;;3.30;;
21601;SDS011;10963;50.934;4.668;2023-08-31T09:57:23;8.07;;;3.17;;
21601;SDS011;10963;50.934;4.668;2023-08-31T09:59:50;6.83;;;2.43;;
21601;SDS011;10963;50.934;4.668;2023-08-31T10:02:18;5.60;;;2.90;;
21601;SDS011;10963;50.934;4.668;2023-08-31T10:04:44;5.77;;;3.20;;
21601;SDS011;10963;50.934;4.668;2023-08-31T10:07:10;5.87;;;3.23;;
21601;SDS011;10963;50.934;4.668;2023-08-31T10:09:42;5.93;;;3.03;;
21601;SDS011;10963;50.934;4.668;2023-08-31T10:12:09;5.77;;;2.70;;
21601;SDS011;10963;50.934;4.668;2023-08-31T10:14:38;5.63;;;3.37;;
21601;SDS011;10963;50.934;4.668;2023-08-31T10:17:04;5.83;;;2.83;;
21601;SDS011;10963;50.934;4.668;2023-08-31T10:19:33;5.40;;;2.40;;
21601;SDS011;10963;50.934;4.668;2023-08-31T10:21:59;5.20;;;2.33;;
21601;SDS011;10963;50.934;4.668;2023-08-31T10:27:40;6.80;;;2.50;;
21601;SDS011;10963;50.934;4.668;2023-08-31T10:38:14;3.50;;;1.97;;
21601;SDS011;10963;50.934;4.668;2023-08-31T10:40:40;4.50;;;2.13;;
21601;SDS011;10963;50.934;4.668;2023-08-31T10:43:15;3.97;;;1.90;;
21601;SDS011;10963;50.934;4.668;2023-08-31T10:45:45;4.47;;;2.13;;
21601;SDS011;10963;50.934;4.668;2023-08-31T10:48:13;8.20;;;3.07;;
21601;SDS011;10963;50.934;4.668;2023-08-31T10:50:44;10.97;;;2.73;;
21601;SDS011;10963;50.934;4.668;2023-08-31T10:53:12;6.60;;;2.50;;
21601;SDS011;10963;50.934;4.668;2023-08-31T10:55:51;7.77;;;2.70;;
21601;SDS011;10963;50.934;4.668;2023-08-31T10:58:19;6.97;;;2.40;;
21601;SDS011;10963;50.934;4.668;2023-08-31T11:00:51;6.87;;;2.40;;
21601;SDS011;10963;50.934;4.668;2023-08-31T11:03:18;7.63;;;2.87;;
21601;SDS011;10963;50.934;4.668;2023-08-31T11:05:53;7.17;;;2.40;;
21601;SDS011;10963;50.934;4.668;2023-08-31T11:08:25;5.87;;;2.43;;
21601;SDS011;10963;50.934;4.668;2023-08-31T11:10:54;5.73;;;2.50;;
21601;SDS011;10963;50.934;4.668;2023-08-31T11:13:19;3.63;;;2.00;;
21601;SDS011;10963;50.934;4.668;2023-08-31T11:15:50;4.87;;;2.03;;
21601;SDS011;10963;50.934;4.668;2023-08-31T11:18:20;6.10;;;2.33;;
21601;SDS011;10963;50.934;4.668;2023-08-31T11:20:46;3.90;;;2.17;;
21601;SDS011;10963;50.934;4.668;2023-08-31T11:23:13;7.80;;;2.50;;
21601;SDS011;10963;50.934;4.668;2023-08-31T11:25:40;6.93;;;2.27;;
21601;SDS011;10963;50.934;4.668;2023-08-31T11:28:06;3.10;;;2.20;;
21601;SDS011;10963;50.934;4.668;2023-08-31T11:30:36;4.30;;;2.70;;
21601;SDS011;10963;50.934;4.668;2023-08-31T11:35:30;9.40;;;2.40;;
21601;SDS011;10963;50.934;4.668;2023-08-31T11:38:06;5.17;;;2.30;;
21601;SDS011;10963;50.934;4.668;2023-08-31T11:40:32;4.43;;;2.33;;
21601;SDS011;10963;50.934;4.668;2023-08-31T11:42:58;5.80;;;2.40;;
21601;SDS011;10963;50.934;4.668;2023-08-31T11:45:28;5.80;;;2.90;;
21601;SDS011;10963;50.934;4.668;2023-08-31T11:47:55;5.60;;;1.90;;
21601;SDS011;10963;50.934;4.668;2023-08-31T11:50:24;5.47;;;2.83;;
21601;SDS011;10963;50.934;4.668;2023-08-31T11:52:54;4.50;;;2.13;;
21601;SDS011;10963;50.934;4.668;2023-08-31T11:55:20;3.83;;;2.30;;
21601;SDS011;10963;50.934;4.668;2023-08-31T11:57:52;4.27;;;2.13;;
21601;SDS011;10963;50.934;4.668;2023-08-31T12:00:24;2.93;;;1.80;;
21601;SDS011;10963;50.934;4.668;2023-08-31T12:02:56;7.07;;;2.30;;
21601;SDS011;10963;50.934;4.668;2023-08-31T12:05:25;7.47;;;3.07;;
21601;SDS011;10963;50.934;4.668;2023-08-31T12:07:57;11.43;;;2.73;;
21601;SDS011;10963;50.934;4.668;2023-08-31T12:10:24;4.97;;;2.10;;
21601;SDS011;10963;50.934;4.668;2023-08-31T12:12:52;5.13;;;2.27;;
21601;SDS011;10963;50.934;4.668;2023-08-31T12:15:20;4.10;;;2.13;;
21601;SDS011;10963;50.934;4.668;2023-08-31T12:17:48;4.77;;;1.83;;
21601;SDS011;10963;50.934;4.668;2023-08-31T12:20:24;6.10;;;1.83;;
21601;SDS011;10963;50.934;4.668;2023-08-31T12:22:54;4.10;;;1.60;;
21601;SDS011;10963;50.934;4.668;2023-08-31T12:25:23;7.83;;;2.03;;
21601;SDS011;10963;50.934;4.668;2023-08-31T12:27:51;4.70;;;2.10;;
21601;SDS011;10963;50.934;4.668;2023-08-31T12:30:17;4.33;;;1.90;;
21601;SDS011;10963;50.934;4.668;2023-08-31T12:32:45;6.70;;;1.57;;
21601;SDS011;10963;50.934;4.668;2023-08-31T12:35:11;5.23;;;1.53;;
21601;SDS011;10963;50.934;4.668;2023-08-31T12:37:39;2.67;;;1.60;;
21601;SDS011;10963;50.934;4.668;2023-08-31T12:40:05;3.83;;;1.73;;
21601;SDS011;10963;50.934;4.668;2023-08-31T12:42:32;3.80;;;1.70;;
21601;SDS011;10963;50.934;4.668;2023-08-31T12:45:00;4.73;;;1.67;;
21601;SDS011;10963;50.934;4.668;2023-08-31T12:47:30;6.90;;;2.10;;
21601;SDS011;10963;50.934;4.668;2023-08-31T12:49:56;4.93;;;1.97;;
21601;SDS011;10963;50.934;4.668;2023-08-31T12:52:27;8.73;;;3.23;;
21601;SDS011;10963;50.934;4.668;2023-08-31T12:54:55;6.60;;;2.37;;
21601;SDS011;10963;50.934;4.668;2023-08-31T12:57:20;6.83;;;2.10;;
21601;SDS011;10963;50.934;4.668;2023-08-31T12:59:46;6.07;;;2.20;;
21601;SDS011;10963;50.934;4.668;2023-08-31T13:02:12;5.90;;;2.63;;
21601;SDS011;10963;50.934;4.668;2023-08-31T13:04:40;5.50;;;2.40;;
21601;SDS011;10963;50.934;4.668;2023-08-31T13:07:06;7.23;;;2.13;;
21601;SDS011;10963;50.934;4.668;2023-08-31T13:09:31;5.03;;;2.00;;
21601;SDS011;10963;50.934;4.668;2023-08-31T13:12:02;4.93;;;2.07;;
21601;SDS011;10963;50.934;4.668;2023-08-31T13:14:28;4.23;;;1.97;;
21601;SDS011;10963;50.934;4.668;2023-08-31T13:16:56;6.90;;;1.90;;
21601;SDS011;10963;50.934;4.668;2023-08-31T13:19:22;7.27;;;1.90;;
21601;SDS011;10963;50.934;4.668;2023-08-31T13:21:50;6.80;;;2.07;;
21601;SDS011;10963;50.934;4.668;2023-08-31T13:24:16;5.43;;;2.03;;
21601;SDS011;10963;50.934;4.668;2023-08-31T13:26:44;5.53;;;1.93;;
21601;SDS011;10963;50.934;4.668;2023-08-31T13:29:13;4.13;;;1.70;;
21601;SDS011;10963;50.934;4.668;2023-08-31T13:31:39;5.23;;;1.60;;
21601;SDS011;10963;50.934;4.668;2023-08-31T13:34:05;6.77;;;1.83;;
21601;SDS011;10963;50.934;4.668;2023-08-31T13:36:32;3.00;;;1.70;;
21601;SDS011;10963;50.934;4.668;2023-08-31T13:39:01;6.10;;;1.73;;
21601;SDS011;10963;50.934;4.668;2023-08-31T13:41:29;5.47;;;1.70;;
21601;SDS011;10963;50.934;4.668;2023-08-31T13:44:00;3.87;;;1.67;;
21601;SDS011;10963;50.934;4.668;2023-08-31T13:46:28;3.23;;;1.40;;
21601;SDS011;10963;50.934;4.668;2023-08-31T13:48:56;3.63;;;1.40;;
21601;SDS011;10963;50.934;4.668;2023-08-31T13:51:24;4.03;;;1.73;;
21601;SDS011;10963;50.934;4.668;2023-08-31T13:53:50;3.70;;;1.63;;
21601;SDS011;10963;50.934;4.668;2023-08-31T13:56:19;6.40;;;1.50;;
21601;SDS011;10963;50.934;4.668;2023-08-31T13:58:45;6.87;;;1.63;;
21601;SDS011;10963;50.934;4.668;2023-08-31T14:01:13;4.57;;;1.77;;
21601;SDS011;10963;50.934;4.668;2023-08-31T14:03:39;3.67;;;1.90;;
21601;SDS011;10963;50.934;4.668;2023-08-31T14:06:06;5.30;;;1.77;;
21601;SDS011;10963;50.934;4.668;2023-08-31T14:08:34;7.87;;;1.97;;
21601;SDS011;10963;50.934;4.668;2023-08-31T14:11:00;3.63;;;1.73;;
21601;SDS011;10963;50.934;4.668;2023-08-31T14:13:26;5.97;;;1.40;;
21601;SDS011;10963;50.934;4.668;2023-08-31T14:15:59;3.97;;;1.63;;
21601;SDS011;10963;50.934;4.668;2023-08-31T14:18:31;4.13;;;1.57;;
21601;SDS011;10963;50.934;4.668;2023-08-31T14:20:59;4.80;;;1.70;;
21601;SDS011;10963;50.934;4.668;2023-08-31T14:23:26;4.37;;;1.60;;
21601;SDS011;10963;50.934;4.668;2023-08-31T14:25:52;4.10;;;2.00;;
21601;SDS011;10963;50.934;4.668;2023-08-31T14:28:18;2.83;;;1.53;;
21601;SDS011;10963;50.934;4.668;2023-08-31T14:30:46;2.33;;;1.70;;
21601;SDS011;10963;50.934;4.668;2023-08-31T14:33:14;4.10;;;2.23;;
21601;SDS011;10963;50.934;4.668;2023-08-31T14:35:40;5.77;;;2.10;;
21601;SDS011;10963;50.934;4.668;2023-08-31T14:38:09;4.43;;;2.47;;
21601;SDS011;10963;50.934;4.668;2023-08-31T14:40:45;3.33;;;1.80;;
21601;SDS011;10963;50.934;4.668;2023-08-31T14:43:11;4.23;;;2.00;;
21601;SDS011;10963;50.934;4.668;2023-08-31T14:45:38;6.80;;;2.00;;
21601;SDS011;10963;50.934;4.668;2023-08-31T14:48:08;5.93;;;2.30;;
21601;SDS011;10963;50.934;4.668;2023-08-31T14:50:36;7.97;;;2.50;;
21601;SDS011;10963;50.934;4.668;2023-08-31T14:53:08;5.37;;;1.93;;
21601;SDS011;10963;50.934;4.668;2023-08-31T14:55:34;7.23;;;1.70;;
21601;SDS011;10963;50.934;4.668;2023-08-31T14:58:00;4.40;;;2.27;;
21601;SDS011;10963;50.934;4.668;2023-08-31T15:00:26;8.37;;;3.03;;
21601;SDS011;10963;50.934;4.668;2023-08-31T15:02:54;6.73;;;2.20;;
21601;SDS011;10963;50.934;4.668;2023-08-31T15:05:20;5.60;;;2.37;;
21601;SDS011;10963;50.934;4.668;2023-08-31T15:07:48;6.30;;;2.13;;
21601;SDS011;10963;50.934;4.668;2023-08-31T15:10:14;5.80;;;2.23;;
21601;SDS011;10963;50.934;4.668;2023-08-31T15:12:43;4.70;;;1.90;;
21601;SDS011;10963;50.934;4.668;2023-08-31T15:15:11;5.60;;;2.40;;